createdAt,value
2022-07-29T00:02:02.750Z,99119.23
2022-07-29T00:05:19.681Z,99120.28
2022-07-29T00:08:35.983Z,99124.45
2022-07-29T00:11:52.541Z,99117.47
2022-07-29T00:15:08.997Z,99122.67
2022-07-29T00:18:25.122Z,99119.98
2022-07-29T00:21:41.257Z,99119.59
2022-07-29T00:24:57.752Z,99120.27
2022-07-29T00:28:14.270Z,99121.08
2022-07-29T00:31:30.338Z,99122.34
2022-07-29T00:35:00.889Z,99121.33
2022-07-29T00:38:17.127Z,99119.97
2022-07-29T00:41:33.222Z,99113.59
2022-07-29T00:44:51.250Z,99121.24
2022-07-29T00:48:08.309Z,99110.16
2022-07-29T00:51:24.799Z,99108.71
2022-07-29T00:54:46.592Z,99105.45
2022-07-29T00:58:03.785Z,99112.22
2022-07-29T01:01:22.733Z,99110.20
2022-07-29T01:04:37.398Z,99099.09
2022-07-29T01:07:54.603Z,99098.92
2022-07-29T01:11:11.258Z,99112.31
2022-07-29T01:14:29.773Z,99113.52
2022-07-29T01:17:53.535Z,99114.14
2022-07-29T01:21:44.590Z,99104.45
2022-07-29T01:25:30.014Z,99098.08
2022-07-29T01:29:10.144Z,99090.49
2022-07-29T01:32:33.010Z,99097.09
2022-07-29T01:35:51.708Z,99089.88
2022-07-29T01:39:15.561Z,99087.64
2022-07-29T01:42:36.309Z,99100.19
2022-07-29T01:45:57.992Z,99091.34
2022-07-29T01:49:20.229Z,99086.41
2022-07-29T01:52:41.324Z,99098.17
2022-07-29T01:55:59.132Z,99103.13
2022-07-29T01:59:17.193Z,99102.30
2022-07-29T02:02:35.151Z,99093.86
2022-07-29T02:05:54.585Z,99097.38
2022-07-29T02:09:11.461Z,99087.92
2022-07-29T02:12:29.612Z,99087.08
2022-07-29T02:15:47.949Z,99080.73
2022-07-29T02:19:07.193Z,99080.75
2022-07-29T02:22:21.673Z,99092.30
2022-07-29T02:25:38.546Z,99087.97
2022-07-29T02:28:56.435Z,99080.75
2022-07-29T02:32:16.128Z,99070.48
2022-07-29T02:35:34.823Z,99067.81
2022-07-29T02:39:01.459Z,99061.47
2022-07-29T02:42:21.857Z,99061.69
2022-07-29T02:45:38.385Z,99059.20
2022-07-29T02:48:58.614Z,99056.34
2022-07-29T02:52:19.710Z,99063.97
2022-07-29T02:55:40.479Z,99057.41
2022-07-29T02:59:02.438Z,99065.65
2022-07-29T03:02:20.430Z,99064.44
2022-07-29T03:05:38.049Z,99063.38
2022-07-29T03:08:56.142Z,99061.55
2022-07-29T03:12:16.856Z,99059.71
2022-07-29T03:15:34.379Z,99059.71
2022-07-29T03:18:50.621Z,99058.06
2022-07-29T03:22:08.429Z,99053.52
2022-07-29T03:25:26.700Z,99064.03
2022-07-29T03:28:42.868Z,99057.44
2022-07-29T03:31:59.545Z,99046.34
2022-07-29T03:35:18.258Z,99057.03
2022-07-29T03:38:37.493Z,99058.28
2022-07-29T03:41:58.323Z,99053.98
2022-07-29T03:45:19.434Z,99064.64
2022-07-29T03:48:37.483Z,99063.22
2022-07-29T03:51:54.235Z,99065.70
2022-07-29T03:55:12.212Z,99059.51
2022-07-29T03:58:30.770Z,99070.61
2022-07-29T04:01:50.146Z,99072.89
2022-07-29T04:05:06.370Z,99071.45
2022-07-29T04:08:22.406Z,99076.17
2022-07-29T04:12:02.639Z,99076.80
2022-07-29T04:14:56.804Z,99083.80
2022-07-29T04:18:13.168Z,99082.97
2022-07-29T04:21:29.255Z,99087.28
2022-07-29T04:24:45.831Z,99084.42
2022-07-29T04:28:07.681Z,99077.84
2022-07-29T04:31:26.044Z,99081.95
2022-07-29T04:34:43.156Z,99072.87
2022-07-29T04:37:59.225Z,99073.45
2022-07-29T04:41:15.910Z,99078.19
2022-07-29T04:44:33.730Z,99073.23
2022-07-29T04:47:51.625Z,99069.54
2022-07-29T04:51:08.058Z,99067.27
2022-07-29T04:54:24.050Z,99067.23
2022-07-29T04:57:42.133Z,99060.00
2022-07-29T05:00:58.435Z,99060.00
2022-07-29T05:04:15.096Z,99061.42
2022-07-29T05:07:31.367Z,99060.35
2022-07-29T05:10:47.567Z,99060.70
2022-07-29T05:14:03.542Z,99060.88
2022-07-29T05:17:19.649Z,99066.00
2022-07-29T05:20:37.410Z,99066.95
2022-07-29T05:23:53.357Z,99070.40
2022-07-29T05:27:09.596Z,99075.45
2022-07-29T05:30:25.885Z,99062.38
2022-07-29T05:33:42.086Z,99068.09
2022-07-29T05:36:58.668Z,99064.89
2022-07-29T05:40:17.012Z,99064.78
2022-07-29T05:43:33.612Z,99066.73
2022-07-29T05:46:49.881Z,99069.29
2022-07-29T05:50:06.084Z,99072.22
2022-07-29T05:53:22.723Z,99072.02
2022-07-29T05:56:39.176Z,99071.50
2022-07-29T05:59:55.856Z,99075.97
2022-07-29T06:03:11.947Z,99077.16
2022-07-29T06:06:28.184Z,99070.07
2022-07-29T06:09:44.378Z,99083.10
2022-07-29T06:13:00.629Z,99078.91
2022-07-29T06:16:17.005Z,99070.98
2022-07-29T06:19:35.326Z,99075.00
2022-07-29T06:22:51.351Z,99076.55
2022-07-29T06:26:08.776Z,99072.05
2022-07-29T06:29:24.917Z,99066.69
2022-07-29T06:32:43.175Z,99077.00
2022-07-29T06:35:59.371Z,99072.70
2022-07-29T06:39:19.263Z,99075.75
2022-07-29T06:42:35.325Z,99081.74
2022-07-29T06:45:53.211Z,99095.30
2022-07-29T06:49:09.756Z,99083.96
2022-07-29T06:52:27.987Z,99085.86
2022-07-29T06:55:44.046Z,99082.78
2022-07-29T06:59:00.351Z,99078.34
2022-07-29T07:02:18.201Z,99080.64
2022-07-29T07:05:34.589Z,99085.08
2022-07-29T07:08:50.595Z,99083.41
2022-07-29T07:12:07.262Z,99081.06
2022-07-29T07:15:39.487Z,99075.71
2022-07-29T07:18:42.370Z,99082.83
2022-07-29T07:22:02.069Z,99075.08
2022-07-29T07:25:21.070Z,99080.09
2022-07-29T07:28:37.422Z,99090.49
2022-07-29T07:31:56.339Z,99092.09
2022-07-29T07:35:13.453Z,99087.38
2022-07-29T07:38:29.850Z,99087.86
2022-07-29T07:41:45.926Z,99084.77
2022-07-29T07:45:13.571Z,99093.84
2022-07-29T07:48:20.276Z,99092.30
2022-07-29T07:51:36.499Z,99088.50
2022-07-29T07:54:53.169Z,99087.42
2022-07-29T07:58:09.235Z,99090.31
2022-07-29T08:01:25.682Z,99082.86
2022-07-29T08:04:42.678Z,99078.78
2022-07-29T08:07:58.926Z,99081.00
2022-07-29T08:11:15.075Z,99080.61
2022-07-29T08:14:31.785Z,99074.31
2022-07-29T08:17:47.991Z,99084.53
2022-07-29T08:21:05.063Z,99088.98
2022-07-29T08:24:43.323Z,99078.47
2022-07-29T08:27:59.850Z,99082.53
2022-07-29T08:31:16.602Z,99091.52
2022-07-29T08:34:32.708Z,99085.04
2022-07-29T08:37:49.328Z,99091.31
2022-07-29T08:41:07.867Z,99079.11
2022-07-29T08:44:30.591Z,99090.28
2022-07-29T08:47:44.432Z,99092.99
2022-07-29T08:51:04.410Z,99082.67
2022-07-29T08:54:25.131Z,99079.95
2022-07-29T08:57:54.241Z,99079.92
2022-07-29T09:01:02.478Z,99094.23
2022-07-29T09:04:22.872Z,99081.95
2022-07-29T09:07:44.890Z,99089.76
2022-07-29T09:11:03.824Z,99079.69
2022-07-29T09:14:22.177Z,99086.94
2022-07-29T09:17:59.069Z,99080.80
2022-07-29T09:21:34.634Z,99086.39
2022-07-29T09:24:57.285Z,99083.23
2022-07-29T09:28:29.024Z,99080.12
2022-07-29T09:31:55.313Z,99078.20
2022-07-29T09:35:56.521Z,99074.34
2022-07-29T09:39:17.739Z,99074.30
2022-07-29T09:42:42.093Z,99060.20
2022-07-29T09:45:58.951Z,99057.59
2022-07-29T09:49:20.594Z,99067.47
2022-07-29T09:52:37.784Z,99047.30
2022-07-29T09:56:01.146Z,99056.89
2022-07-29T09:59:18.666Z,99046.94
2022-07-29T10:02:45.256Z,99047.48
2022-07-29T10:06:17.764Z,99050.50
2022-07-29T10:09:35.682Z,99048.66
2022-07-29T10:13:07.103Z,99047.34
2022-07-29T10:16:26.204Z,99039.03
2022-07-29T10:19:44.259Z,99031.16
2022-07-29T10:23:01.753Z,99025.42
2022-07-29T10:26:19.020Z,99019.63
2022-07-29T10:29:38.495Z,99016.71
2022-07-29T10:33:22.222Z,99024.88
2022-07-29T10:36:55.546Z,99028.59
2022-07-29T10:40:27.109Z,99021.52
2022-07-29T10:43:51.431Z,99017.26
2022-07-29T10:47:08.397Z,99010.98
2022-07-29T10:50:26.664Z,99006.93
2022-07-29T10:54:02.660Z,98997.77
2022-07-29T10:57:53.692Z,98996.09
2022-07-29T11:01:03.975Z,99004.65
2022-07-29T11:04:20.922Z,98998.52
2022-07-29T11:07:46.012Z,99008.45
2022-07-29T11:11:00.594Z,98988.28
2022-07-29T11:14:19.358Z,99008.16
2022-07-29T11:17:52.105Z,98985.06
2022-07-29T11:21:02.233Z,98980.41
2022-07-29T11:24:32.818Z,98989.63
2022-07-29T11:27:55.121Z,98987.19
2022-07-29T11:31:27.857Z,98997.91
2022-07-29T11:34:45.503Z,98984.64
2022-07-29T11:38:38.384Z,98979.09
2022-07-29T11:42:00.510Z,98965.64
2022-07-29T11:45:43.740Z,98969.69
2022-07-29T11:48:40.493Z,98966.44
2022-07-29T11:52:07.007Z,98963.02
2022-07-29T11:55:32.309Z,98965.78
2022-07-29T11:58:48.327Z,98954.15
2022-07-29T12:02:36.373Z,98959.38
2022-07-29T12:05:37.001Z,98953.72
2022-07-29T12:08:50.437Z,98951.00
2022-07-29T12:12:10.074Z,98952.64
2022-07-29T12:15:46.030Z,98957.31
2022-07-29T12:18:59.442Z,98941.27
2022-07-29T12:22:16.021Z,98937.75
2022-07-29T12:25:34.060Z,98937.20
2022-07-29T12:28:54.796Z,98936.38
2022-07-29T12:32:14.597Z,98927.68
2022-07-29T12:35:45.771Z,98931.27
2022-07-29T12:39:04.041Z,98923.91
2022-07-29T12:42:27.069Z,98922.54
2022-07-29T12:45:44.741Z,98917.14
2022-07-29T12:49:04.109Z,98906.27
2022-07-29T12:52:38.925Z,98907.91
2022-07-29T12:55:58.299Z,98910.88
2022-07-29T12:59:29.432Z,98899.45
2022-07-29T13:02:49.501Z,98893.19
2022-07-29T13:06:25.127Z,98889.93
2022-07-29T13:09:50.661Z,98889.42
2022-07-29T13:13:19.070Z,98889.42
2022-07-29T13:16:38.486Z,98886.68
2022-07-29T13:19:59.831Z,98892.11
2022-07-29T13:23:22.141Z,98883.45
2022-07-29T13:26:44.291Z,98882.64
2022-07-29T13:30:02.533Z,98883.41
2022-07-29T13:33:18.725Z,98879.35
2022-07-29T13:36:38.709Z,98869.28
2022-07-29T13:39:56.861Z,98872.53
2022-07-29T13:43:16.216Z,98867.35
2022-07-29T13:46:39.464Z,98856.44
2022-07-29T13:49:58.624Z,98856.44
2022-07-29T13:56:29.082Z,98846.95
2022-07-29T13:59:54.305Z,98838.80
2022-07-29T14:03:17.253Z,98845.57
2022-07-29T14:25:15.127Z,98832.88
2022-07-29T14:28:32.049Z,98831.55
2022-07-29T14:31:51.252Z,98830.16
2022-07-29T14:35:08.224Z,98819.30
2022-07-29T14:38:27.309Z,98814.73
2022-07-29T14:41:59.074Z,98815.23
2022-07-29T14:48:16.650Z,98805.47
2022-07-29T14:51:38.953Z,98794.09
2022-07-29T14:55:19.851Z,98787.59
2022-07-29T14:58:51.529Z,98789.25
2022-07-29T15:05:41.355Z,98808.59
2022-07-29T15:08:57.873Z,98809.69
2022-07-29T15:12:20.517Z,98812.95
2022-07-29T15:15:37.020Z,98815.41
2022-07-29T15:18:54.116Z,98827.66
2022-07-29T15:22:10.985Z,98823.88
2022-07-29T15:25:28.146Z,98821.45
2022-07-29T15:28:44.700Z,98818.49
2022-07-29T15:32:02.493Z,98809.80
2022-07-29T15:35:20.898Z,98814.69
2022-07-29T15:38:41.760Z,98813.89
2022-07-29T15:41:57.228Z,98809.55
2022-07-29T15:45:15.896Z,98814.18
2022-07-29T15:48:34.617Z,98812.84
2022-07-29T15:51:51.469Z,98812.02
2022-07-29T15:55:07.944Z,98818.56
2022-07-29T15:58:24.234Z,98819.64
2022-07-29T16:01:43.484Z,98830.76
2022-07-29T16:04:59.789Z,98829.96
2022-07-29T16:08:18.063Z,98842.73
2022-07-29T16:11:34.352Z,98848.42
2022-07-29T16:14:51.972Z,98850.63
2022-07-29T16:18:09.722Z,98861.48
2022-07-29T16:21:28.227Z,98872.10
2022-07-29T16:24:42.997Z,98909.56
2022-07-29T16:27:59.989Z,98905.56
2022-07-29T16:31:16.932Z,98922.01
2022-07-29T16:34:33.231Z,98936.05
2022-07-29T16:38:23.488Z,98927.08
2022-07-29T16:42:08.214Z,98919.73
2022-07-29T16:45:54.725Z,98927.06
2022-07-29T16:49:25.707Z,98921.52
2022-07-29T16:53:24.405Z,98924.90
2022-07-29T16:56:57.332Z,98926.30
2022-07-29T17:00:27.177Z,98926.50
2022-07-29T17:04:35.448Z,98927.73
2022-07-29T17:18:29.333Z,98920.84
2022-07-29T17:22:06.357Z,98915.20
2022-07-29T17:25:39.896Z,98907.66
2022-07-29T17:28:56.493Z,98900.05
2022-07-29T17:32:29.323Z,98900.53
2022-07-29T17:36:12.091Z,98901.70
2022-07-29T17:39:38.355Z,98893.30
2022-07-29T17:43:09.678Z,98892.00
2022-07-29T17:46:31.939Z,98885.38
2022-07-29T17:50:01.679Z,98881.84
2022-07-29T17:53:32.865Z,98879.06
2022-07-29T17:57:22.969Z,98880.09
2022-07-29T18:00:46.319Z,98875.77
2022-07-29T18:04:32.773Z,98875.17
2022-07-29T18:07:49.681Z,98874.92
2022-07-29T18:11:07.730Z,98872.21
2022-07-29T18:14:24.289Z,98880.25
2022-07-29T18:17:52.794Z,98889.25
2022-07-29T18:20:59.451Z,98888.20
2022-07-29T18:24:17.313Z,98892.44
2022-07-29T18:27:36.280Z,98885.52
2022-07-29T18:30:53.514Z,98876.32
2022-07-29T18:34:09.920Z,98881.05
2022-07-29T18:38:01.193Z,98882.09
2022-07-29T18:40:48.832Z,98884.44
2022-07-29T18:44:05.699Z,98860.70
2022-07-29T18:47:22.530Z,98853.92
2022-07-29T18:50:42.609Z,98847.64
2022-07-29T18:54:00.317Z,98856.80
2022-07-29T18:57:54.524Z,98857.76
2022-07-29T19:00:36.377Z,98839.05
2022-07-29T19:03:52.666Z,98836.25
2022-07-29T19:07:09.061Z,98834.27
2022-07-29T19:10:25.911Z,98821.56
2022-07-29T19:13:45.609Z,98825.50
2022-07-29T19:17:01.974Z,98838.38
2022-07-29T19:20:21.093Z,98849.13
2022-07-29T19:24:05.964Z,98880.89
2022-07-29T19:27:00.429Z,98902.75
2022-07-29T19:30:21.762Z,98913.50
2022-07-29T19:33:40.722Z,98896.44
2022-07-29T19:37:00.736Z,98902.86
2022-07-29T19:40:19.387Z,98907.30
2022-07-29T19:43:51.084Z,98915.95
2022-07-29T19:46:54.554Z,98920.14
2022-07-29T19:50:12.032Z,98915.02
2022-07-29T19:53:28.285Z,98907.65
2022-07-29T19:56:45.771Z,98900.03
2022-07-29T20:00:05.381Z,98899.13
2022-07-29T20:03:23.389Z,98882.05
2022-07-29T20:06:40.156Z,98884.05
2022-07-29T20:09:57.768Z,98874.83
2022-07-29T20:13:14.601Z,98876.81
2022-07-29T20:16:30.822Z,98866.41
2022-07-29T20:19:48.467Z,98860.90
2022-07-29T20:23:04.998Z,98858.06
2022-07-29T20:26:21.298Z,98852.69
2022-07-29T20:29:37.508Z,98843.12
2022-07-29T20:32:56.908Z,98847.20
2022-07-29T20:36:13.824Z,98851.28
2022-07-29T20:39:31.218Z,98858.30
2022-07-29T20:42:47.490Z,98846.86
2022-07-29T20:46:03.651Z,98844.75
2022-07-29T20:49:22.192Z,98841.94
2022-07-29T20:52:40.272Z,98828.50
2022-07-29T20:55:56.770Z,98821.02
2022-07-29T20:59:14.720Z,98828.84
2022-07-29T21:02:30.918Z,98836.10
2022-07-29T21:05:48.885Z,98828.03
2022-07-29T21:09:06.499Z,98836.69
2022-07-29T21:12:23.510Z,98836.91
2022-07-29T21:15:40.127Z,98834.22
2022-07-29T21:18:57.707Z,98834.47
2022-07-29T21:22:15.089Z,98838.69
2022-07-29T21:25:32.633Z,98837.30
2022-07-29T21:28:50.160Z,98846.06
2022-07-29T21:32:06.824Z,98846.30
2022-07-29T21:36:06.311Z,98840.93
2022-07-29T21:38:42.676Z,98842.44
2022-07-29T21:41:59.035Z,98844.08
2022-07-29T21:45:16.861Z,98850.98
2022-07-29T21:48:34.690Z,98847.14
2022-07-29T21:51:50.813Z,98860.34
2022-07-29T21:55:07.200Z,98856.81
2022-07-29T21:58:25.651Z,98866.31
2022-07-29T22:01:41.678Z,98864.56
2022-07-29T22:04:57.982Z,98853.56
2022-07-29T22:08:15.071Z,98867.11
2022-07-29T22:11:31.278Z,98870.72
2022-07-29T22:14:47.589Z,98865.23
2022-07-29T22:18:03.981Z,98868.49
2022-07-29T22:21:20.411Z,98870.23
2022-07-29T22:24:36.631Z,98866.73
2022-07-29T22:27:53.074Z,98860.44
2022-07-29T22:31:09.351Z,98860.31
2022-07-29T22:34:25.965Z,98857.41
2022-07-29T22:37:44.468Z,98850.40
2022-07-29T22:41:01.657Z,98855.77
2022-07-29T22:44:18.925Z,98847.70
2022-07-29T22:47:45.727Z,98834.96
2022-07-29T22:50:53.282Z,98817.46
2022-07-29T22:54:12.032Z,98813.01
2022-07-29T22:57:28.496Z,98803.34
2022-07-29T23:00:44.849Z,98807.98
2022-07-29T23:04:03.346Z,98799.92
2022-07-29T23:07:20.304Z,98800.77
2022-07-29T23:10:36.914Z,98792.70
2022-07-29T23:13:53.220Z,98791.05
2022-07-29T23:17:09.390Z,98783.00
2022-07-29T23:20:25.685Z,98785.47
2022-07-29T23:23:42.023Z,98779.86
2022-07-29T23:26:58.384Z,98773.20
2022-07-29T23:30:18.260Z,98781.26
2022-07-29T23:33:34.451Z,98761.30
2022-07-29T23:36:50.766Z,98760.02
2022-07-29T23:40:10.856Z,98764.55
2022-07-29T23:43:24.962Z,98750.91
2022-07-29T23:46:41.358Z,98739.23
2022-07-29T23:49:57.744Z,98738.42
2022-07-29T23:53:13.920Z,98724.41
2022-07-29T23:56:30.388Z,98716.00
2022-07-29T23:59:46.441Z,98702.57
